sensor_id;sensor_type;location;lat;lon;timestamp;noise_LAeq;noise_LA_min;noise_LA_max;noise_LA01;noise_LA95
72978;Laerm;61167;55.884;37.524;2023-01-13T00:00:57;47.53;41.50;60.45;;
72978;Laerm;61167;55.884;37.524;2023-01-13T00:01:57;48.63;40.35;64.28;;
72978;Laerm;61167;55.884;37.524;2023-01-13T00:02:57;50.02;40.52;67.73;;
72978;Laerm;61167;55.884;37.524;2023-01-13T00:03:58;45.50;39.70;64.74;;
72978;Laerm;61167;55.884;37.524;2023-01-13T00:04:59;44.47;39.46;63.63;;
72978;Laerm;61167;55.884;37.524;2023-01-13T00:05:59;58.37;40.85;87.13;;
72978;Laerm;61167;55.884;37.524;2023-01-13T00:07:00;46.91;39.56;65.90;;
72978;Laerm;61167;55.884;37.524;2023-01-13T00:08:00;49.90;39.76;66.18;;
72978;Laerm;61167;55.884;37.524;2023-01-13T00:09:03;43.57;39.93;55.98;;
72978;Laerm;61167;55.884;37.524;2023-01-13T00:10:07;45.19;39.36;57.64;;
72978;Laerm;61167;55.884;37.524;2023-01-13T00:11:08;51.41;41.36;75.70;;
72978;Laerm;61167;55.884;37.524;2023-01-13T00:12:08;44.80;40.31;58.65;;
72978;Laerm;61167;55.884;37.524;2023-01-13T00:13:10;46.97;42.69;53.95;;
72978;Laerm;61167;55.884;37.524;2023-01-13T00:14:11;45.11;41.13;51.17;;
72978;Laerm;61167;55.884;37.524;2023-01-13T00:15:11;48.37;41.57;66.54;;
72978;Laerm;61167;55.884;37.524;2023-01-13T00:16:14;46.86;40.24;54.58;;
72978;Laerm;61167;55.884;37.524;2023-01-13T00:17:14;50.19;39.53;70.02;;
72978;Laerm;61167;55.884;37.524;2023-01-13T00:18:14;46.42;38.88;64.51;;
72978;Laerm;61167;55.884;37.524;2023-01-13T00:19:15;49.40;41.13;67.71;;
72978;Laerm;61167;55.884;37.524;2023-01-13T00:20:16;45.36;40.94;54.55;;
72978;Laerm;61167;55.884;37.524;2023-01-13T00:21:18;45.19;40.25;54.39;;
72978;Laerm;61167;55.884;37.524;2023-01-13T00:22:21;44.54;39.81;58.09;;
72978;Laerm;61167;55.884;37.524;2023-01-13T00:23:21;45.02;40.07;57.08;;
72978;Laerm;61167;55.884;37.524;2023-01-13T00:24:23;45.07;39.95;60.38;;
72978;Laerm;61167;55.884;37.524;2023-01-13T00:25:24;47.63;42.03;60.71;;
72978;Laerm;61167;55.884;37.524;2023-01-13T00:26:25;46.20;41.78;56.19;;
72978;Laerm;61167;55.884;37.524;2023-01-13T00:27:26;47.04;39.79;65.29;;
72978;Laerm;61167;55.884;37.524;2023-01-13T00:28:27;48.57;40.05;70.72;;
72978;Laerm;61167;55.884;37.524;2023-01-13T00:29:27;53.91;39.26;78.73;;
72978;Laerm;61167;55.884;37.524;2023-01-13T00:30:28;54.09;42.34;75.46;;
72978;Laerm;61167;55.884;37.524;2023-01-13T00:31:28;48.12;40.09;63.34;;
72978;Laerm;61167;55.884;37.524;2023-01-13T00:32:29;46.71;40.07;64.42;;
72978;Laerm;61167;55.884;37.524;2023-01-13T00:33:29;49.97;39.83;67.74;;
72978;Laerm;61167;55.884;37.524;2023-01-13T00:34:29;55.21;40.99;75.94;;
72978;Laerm;61167;55.884;37.524;2023-01-13T00:35:30;45.03;38.22;62.84;;
72978;Laerm;61167;55.884;37.524;2023-01-13T00:36:30;45.11;40.59;52.81;;
72978;Laerm;61167;55.884;37.524;2023-01-13T00:37:31;51.90;41.30;72.56;;
72978;Laerm;61167;55.884;37.524;2023-01-13T00:38:34;47.52;40.49;65.80;;
72978;Laerm;61167;55.884;37.524;2023-01-13T00:39:35;45.00;40.39;62.40;;
72978;Laerm;61167;55.884;37.524;2023-01-13T00:40:35;49.82;41.27;68.94;;
72978;Laerm;61167;55.884;37.524;2023-01-13T00:41:35;51.44;40.53;70.54;;
72978;Laerm;61167;55.884;37.524;2023-01-13T00:42:55;50.41;44.33;62.90;;
72978;Laerm;61167;55.884;37.524;2023-01-13T00:44:14;55.29;43.02;75.27;;
72978;Laerm;61167;55.884;37.524;2023-01-13T00:45:14;50.20;43.53;70.63;;
72978;Laerm;61167;55.884;37.524;2023-01-13T00:46:16;59.45;44.14;78.26;;
72978;Laerm;61167;55.884;37.524;2023-01-13T00:47:16;48.83;42.94;70.67;;
72978;Laerm;61167;55.884;37.524;2023-01-13T00:48:18;51.92;43.42;71.78;;
72978;Laerm;61167;55.884;37.524;2023-01-13T00:49:18;47.41;41.37;58.38;;
72978;Laerm;61167;55.884;37.524;2023-01-13T00:50:19;46.12;40.46;63.07;;
72978;Laerm;61167;55.884;37.524;2023-01-13T00:51:20;45.61;41.12;62.39;;
72978;Laerm;61167;55.884;37.524;2023-01-13T00:52:20;44.53;40.93;52.45;;
72978;Laerm;61167;55.884;37.524;2023-01-13T00:53:21;44.44;39.39;54.67;;
72978;Laerm;61167;55.884;37.524;2023-01-13T00:54:21;45.74;41.18;53.87;;
72978;Laerm;61167;55.884;37.524;2023-01-13T00:55:22;45.92;41.64;55.54;;
72978;Laerm;61167;55.884;37.524;2023-01-13T00:56:23;48.30;40.33;70.59;;
72978;Laerm;61167;55.884;37.524;2023-01-13T00:57:23;45.26;41.33;57.17;;
72978;Laerm;61167;55.884;37.524;2023-01-13T00:58:24;47.51;40.66;70.07;;
72978;Laerm;61167;55.884;37.524;2023-01-13T00:59:24;44.51;40.40;57.43;;
72978;Laerm;61167;55.884;37.524;2023-01-13T01:00:24;49.75;40.28;68.31;;
72978;Laerm;61167;55.884;37.524;2023-01-13T01:01:25;48.13;41.89;65.42;;
72978;Laerm;61167;55.884;37.524;2023-01-13T01:02:25;48.43;42.87;64.84;;
72978;Laerm;61167;55.884;37.524;2023-01-13T01:03:26;48.62;41.49;65.80;;
72978;Laerm;61167;55.884;37.524;2023-01-13T01:04:26;44.92;40.18;60.61;;
72978;Laerm;61167;55.884;37.524;2023-01-13T01:05:26;45.94;40.80;58.46;;
72978;Laerm;61167;55.884;37.524;2023-01-13T01:06:27;47.05;40.39;64.54;;
72978;Laerm;61167;55.884;37.524;2023-01-13T01:07:27;49.28;43.12;66.99;;
72978;Laerm;61167;55.884;37.524;2023-01-13T01:08:28;52.90;44.00;74.46;;
72978;Laerm;61167;55.884;37.524;2023-01-13T01:09:28;48.76;43.79;59.06;;
72978;Laerm;61167;55.884;37.524;2023-01-13T01:10:31;54.48;42.86;73.41;;
72978;Laerm;61167;55.884;37.524;2023-01-13T01:11:32;46.55;41.19;64.60;;
72978;Laerm;61167;55.884;37.524;2023-01-13T01:12:33;52.58;40.22;76.78;;
72978;Laerm;61167;55.884;37.524;2023-01-13T01:13:33;47.72;39.99;65.27;;
72978;Laerm;61167;55.884;37.524;2023-01-13T01:14:33;57.81;39.63;78.69;;
72978;Laerm;61167;55.884;37.524;2023-01-13T01:15:34;48.90;42.28;66.76;;
72978;Laerm;61167;55.884;37.524;2023-01-13T01:16:38;52.77;41.35;72.61;;
72978;Laerm;61167;55.884;37.524;2023-01-13T01:17:39;46.69;40.69;63.12;;
72978;Laerm;61167;55.884;37.524;2023-01-13T01:18:40;44.78;40.03;58.49;;
72978;Laerm;61167;55.884;37.524;2023-01-13T01:19:41;49.31;41.46;67.96;;
72978;Laerm;61167;55.884;37.524;2023-01-13T01:20:41;44.59;39.40;57.14;;
72978;Laerm;61167;55.884;37.524;2023-01-13T01:21:41;46.31;40.95;63.39;;
72978;Laerm;61167;55.884;37.524;2023-01-13T01:22:42;45.55;41.01;54.63;;
72978;Laerm;61167;55.884;37.524;2023-01-13T01:23:42;44.99;41.40;59.69;;
72978;Laerm;61167;55.884;37.524;2023-01-13T01:24:43;50.11;41.76;72.20;;
72978;Laerm;61167;55.884;37.524;2023-01-13T01:25:43;47.64;41.42;64.81;;
72978;Laerm;61167;55.884;37.524;2023-01-13T01:26:43;47.52;41.71;62.91;;
72978;Laerm;61167;55.884;37.524;2023-01-13T01:27:44;47.58;41.50;68.85;;
72978;Laerm;61167;55.884;37.524;2023-01-13T01:28:44;46.14;41.83;61.13;;
72978;Laerm;61167;55.884;37.524;2023-01-13T01:29:45;47.23;41.57;65.38;;
72978;Laerm;61167;55.884;37.524;2023-01-13T01:30:45;49.53;40.93;71.84;;
72978;Laerm;61167;55.884;37.524;2023-01-13T01:31:46;47.21;41.25;64.62;;
72978;Laerm;61167;55.884;37.524;2023-01-13T01:32:46;49.80;43.50;67.19;;
72978;Laerm;61167;55.884;37.524;2023-01-13T01:33:46;48.56;42.45;64.29;;
72978;Laerm;61167;55.884;37.524;2023-01-13T01:34:47;47.59;43.82;55.06;;
72978;Laerm;61167;55.884;37.524;2023-01-13T01:35:47;47.25;42.30;63.94;;
72978;Laerm;61167;55.884;37.524;2023-01-13T01:36:47;54.87;43.55;74.72;;
72978;Laerm;61167;55.884;37.524;2023-01-13T01:37:48;46.43;42.02;58.14;;
72978;Laerm;61167;55.884;37.524;2023-01-13T01:38:48;51.09;41.89;70.77;;
72978;Laerm;61167;55.884;37.524;2023-01-13T01:39:49;45.74;40.15;65.43;;
72978;Laerm;61167;55.884;37.524;2023-01-13T01:40:49;47.30;40.61;65.80;;
72978;Laerm;61167;55.884;37.524;2023-01-13T01:41:49;45.15;40.08;59.09;;
72978;Laerm;61167;55.884;37.524;2023-01-13T01:43:13;50.14;40.47;70.00;;
72978;Laerm;61167;55.884;37.524;2023-01-13T01:45:41;46.55;40.00;66.47;;
72978;Laerm;61167;55.884;37.524;2023-01-13T01:46:43;46.44;40.06;60.01;;
72978;Laerm;61167;55.884;37.524;2023-01-13T01:47:44;50.03;41.65;70.02;;
72978;Laerm;61167;55.884;37.524;2023-01-13T01:48:45;47.60;41.82;65.71;;
72978;Laerm;61167;55.884;37.524;2023-01-13T01:49:45;47.92;41.98;64.98;;
72978;Laerm;61167;55.884;37.524;2023-01-13T01:50:46;49.35;41.98;68.30;;
72978;Laerm;61167;55.884;37.524;2023-01-13T01:51:48;49.55;43.73;62.46;;
72978;Laerm;61167;55.884;37.524;2023-01-13T01:52:52;47.00;42.21;54.87;;
72978;Laerm;61167;55.884;37.524;2023-01-13T01:53:53;49.23;41.08;74.29;;
72978;Laerm;61167;55.884;37.524;2023-01-13T01:55:05;47.13;40.99;62.77;;
72978;Laerm;61167;55.884;37.524;2023-01-13T01:56:09;45.13;40.33;60.86;;
72978;Laerm;61167;55.884;37.524;2023-01-13T01:57:10;47.91;42.04;61.68;;
72978;Laerm;61167;55.884;37.524;2023-01-13T01:58:33;48.79;40.85;67.36;;
72978;Laerm;61167;55.884;37.524;2023-01-13T01:59:34;49.51;41.73;71.02;;
72978;Laerm;61167;55.884;37.524;2023-01-13T02:00:35;49.02;43.21;60.79;;
72978;Laerm;61167;55.884;37.524;2023-01-13T02:01:35;48.03;42.43;61.29;;
72978;Laerm;61167;55.884;37.524;2023-01-13T02:02:38;51.58;43.55;74.31;;
72978;Laerm;61167;55.884;37.524;2023-01-13T02:03:40;46.12;41.71;63.60;;
72978;Laerm;61167;55.884;37.524;2023-01-13T02:04:43;49.01;42.42;64.84;;
72978;Laerm;61167;55.884;37.524;2023-01-13T02:05:50;53.89;41.12;82.29;;
72978;Laerm;61167;55.884;37.524;2023-01-13T02:06:50;45.68;41.61;57.06;;
72978;Laerm;61167;55.884;37.524;2023-01-13T02:07:52;48.66;42.83;66.39;;
72978;Laerm;61167;55.884;37.524;2023-01-13T02:08:53;48.36;42.56;61.03;;
72978;Laerm;61167;55.884;37.524;2023-01-13T02:09:54;48.11;41.93;63.36;;
72978;Laerm;61167;55.884;37.524;2023-01-13T02:10:55;48.46;42.15;65.36;;
72978;Laerm;61167;55.884;37.524;2023-01-13T02:11:55;52.72;41.64;71.32;;
72978;Laerm;61167;55.884;37.524;2023-01-13T02:13:14;47.27;41.35;62.07;;
72978;Laerm;61167;55.884;37.524;2023-01-13T02:14:14;46.54;41.35;58.10;;
72978;Laerm;61167;55.884;37.524;2023-01-13T02:15:17;52.96;42.13;72.23;;
72978;Laerm;61167;55.884;37.524;2023-01-13T02:16:18;54.48;42.44;75.55;;
72978;Laerm;61167;55.884;37.524;2023-01-13T02:21:21;51.86;41.93;72.30;;
72978;Laerm;61167;55.884;37.524;2023-01-13T02:29:03;54.21;42.90;78.65;;
72978;Laerm;61167;55.884;37.524;2023-01-13T02:31:51;50.62;41.70;68.75;;
72978;Laerm;61167;55.884;37.524;2023-01-13T02:37:27;47.62;43.28;59.00;;
72978;Laerm;61167;55.884;37.524;2023-01-13T02:38:33;51.28;42.86;72.06;;
72978;Laerm;61167;55.884;37.524;2023-01-13T02:39:36;47.52;42.60;57.73;;
72978;Laerm;61167;55.884;37.524;2023-01-13T02:40:49;48.49;43.24;59.79;;
72978;Laerm;61167;55.884;37.524;2023-01-13T02:42:03;60.11;45.07;83.87;;
72978;Laerm;61167;55.884;37.524;2023-01-13T02:43:24;51.44;44.16;71.97;;
72978;Laerm;61167;55.884;37.524;2023-01-13T02:44:46;52.19;44.75;74.76;;
72978;Laerm;61167;55.884;37.524;2023-01-13T02:46:02;48.76;44.63;56.69;;
72978;Laerm;61167;55.884;37.524;2023-01-13T02:47:11;59.05;45.08;78.18;;
72978;Laerm;61167;55.884;37.524;2023-01-13T02:48:14;48.91;44.62;61.25;;
72978;Laerm;61167;55.884;37.524;2023-01-13T02:49:21;52.05;45.52;71.09;;
72978;Laerm;61167;55.884;37.524;2023-01-13T02:50:26;49.07;44.50;63.03;;
72978;Laerm;61167;55.884;37.524;2023-01-13T02:51:28;50.10;44.02;69.50;;
72978;Laerm;61167;55.884;37.524;2023-01-13T02:53:40;47.47;43.50;58.79;;
72978;Laerm;61167;55.884;37.524;2023-01-13T02:54:43;52.82;44.82;62.28;;
72978;Laerm;61167;55.884;37.524;2023-01-13T02:55:46;57.08;44.27;79.48;;
72978;Laerm;61167;55.884;37.524;2023-01-13T02:56:48;55.89;44.10;79.37;;
72978;Laerm;61167;55.884;37.524;2023-01-13T02:57:52;50.19;44.10;64.90;;
72978;Laerm;61167;55.884;37.524;2023-01-13T02:58:54;49.60;44.36;66.86;;
72978;Laerm;61167;55.884;37.524;2023-01-13T02:59:56;48.99;43.74;62.22;;
72978;Laerm;61167;55.884;37.524;2023-01-13T03:00:56;55.50;45.40;79.48;;
72978;Laerm;61167;55.884;37.524;2023-01-13T03:01:57;49.55;44.84;59.79;;
72978;Laerm;61167;55.884;37.524;2023-01-13T03:02:58;53.21;45.60;70.33;;
72978;Laerm;61167;55.884;37.524;2023-01-13T03:04:09;50.18;46.33;63.47;;
72978;Laerm;61167;55.884;37.524;2023-01-13T03:05:11;55.84;46.46;80.78;;
72978;Laerm;61167;55.884;37.524;2023-01-13T03:08:37;51.88;45.76;65.42;;
72978;Laerm;61167;55.884;37.524;2023-01-13T03:09:43;51.14;45.98;70.83;;
72978;Laerm;61167;55.884;37.524;2023-01-13T03:10:56;56.39;47.09;64.45;;
72978;Laerm;61167;55.884;37.524;2023-01-13T03:14:05;54.87;44.96;75.74;;
72978;Laerm;61167;55.884;37.524;2023-01-13T03:15:13;49.14;45.86;60.55;;
72978;Laerm;61167;55.884;37.524;2023-01-13T03:17:40;51.72;45.37;76.64;;
72978;Laerm;61167;55.884;37.524;2023-01-13T03:18:44;49.73;45.17;67.02;;
72978;Laerm;61167;55.884;37.524;2023-01-13T03:22:19;50.45;46.14;60.55;;
72978;Laerm;61167;55.884;37.524;2023-01-13T03:23:46;52.24;47.54;60.42;;
72978;Laerm;61167;55.884;37.524;2023-01-13T03:24:46;50.64;46.17;63.27;;
72978;Laerm;61167;55.884;37.524;2023-01-13T03:25:55;52.96;47.22;70.54;;
72978;Laerm;61167;55.884;37.524;2023-01-13T03:27:21;60.67;46.41;84.77;;
72978;Laerm;61167;55.884;37.524;2023-01-13T03:28:24;51.65;46.11;62.39;;
72978;Laerm;61167;55.884;37.524;2023-01-13T03:30:30;51.31;45.54;62.28;;
72978;Laerm;61167;55.884;37.524;2023-01-13T03:31:33;52.80;46.28;69.52;;
72978;Laerm;61167;55.884;37.524;2023-01-13T03:32:37;55.08;45.27;74.74;;
72978;Laerm;61167;55.884;37.524;2023-01-13T03:33:41;52.85;45.95;72.14;;
72978;Laerm;61167;55.884;37.524;2023-01-13T03:34:46;51.84;46.59;70.43;;
72978;Laerm;61167;55.884;37.524;2023-01-13T03:35:51;50.50;46.68;60.68;;
72978;Laerm;61167;55.884;37.524;2023-01-13T03:36:53;58.93;46.13;79.73;;
72978;Laerm;61167;55.884;37.524;2023-01-13T03:38:16;52.82;46.07;58.85;;
72978;Laerm;61167;55.884;37.524;2023-01-13T03:39:16;51.32;46.42;62.98;;
72978;Laerm;61167;55.884;37.524;2023-01-13T03:40:20;53.18;46.51;68.70;;
72978;Laerm;61167;55.884;37.524;2023-01-13T03:41:24;57.67;47.24;80.51;;
72978;Laerm;61167;55.884;37.524;2023-01-13T03:42:27;58.97;46.53;81.72;;
72978;Laerm;61167;55.884;37.524;2023-01-13T03:43:39;57.65;46.61;79.02;;
72978;Laerm;61167;55.884;37.524;2023-01-13T03:45:10;50.74;45.98;62.26;;
72978;Laerm;61167;55.884;37.524;2023-01-13T03:46:25;52.27;47.74;64.32;;
72978;Laerm;61167;55.884;37.524;2023-01-13T03:47:29;51.30;47.07;67.01;;
72978;Laerm;61167;55.884;37.524;2023-01-13T03:48:34;62.88;47.59;81.48;;
72978;Laerm;61167;55.884;37.524;2023-01-13T03:50:45;51.53;47.20;66.04;;
72978;Laerm;61167;55.884;37.524;2023-01-13T03:51:49;51.01;47.03;57.87;;
72978;Laerm;61167;55.884;37.524;2023-01-13T03:52:57;54.65;47.20;78.58;;
72978;Laerm;61167;55.884;37.524;2023-01-13T03:54:01;52.18;47.47;63.57;;
72978;Laerm;61167;55.884;37.524;2023-01-13T03:55:14;52.67;48.23;62.01;;
72978;Laerm;61167;55.884;37.524;2023-01-13T03:57:01;53.47;47.57;65.35;;
72978;Laerm;61167;55.884;37.524;2023-01-13T03:58:01;54.07;47.95;62.53;;
72978;Laerm;61167;55.884;37.524;2023-01-13T03:59:06;52.67;48.86;60.82;;
72978;Laerm;61167;55.884;37.524;2023-01-13T04:00:09;52.42;48.62;58.33;;
72978;Laerm;61167;55.884;37.524;2023-01-13T04:01:16;52.98;46.64;65.67;;
72978;Laerm;61167;55.884;37.524;2023-01-13T04:02:24;51.17;46.73;57.93;;
72978;Laerm;61167;55.884;37.524;2023-01-13T04:03:30;53.38;46.96;64.74;;
72978;Laerm;61167;55.884;37.524;2023-01-13T04:05:37;51.20;48.07;61.09;;
72978;Laerm;61167;55.884;37.524;2023-01-13T04:06:41;52.50;48.33;57.71;;
72978;Laerm;61167;55.884;37.524;2023-01-13T04:07:53;56.83;47.92;74.86;;
72978;Laerm;61167;55.884;37.524;2023-01-13T04:08:57;53.70;48.67;68.35;;
72978;Laerm;61167;55.884;37.524;2023-01-13T04:10:02;54.45;49.02;60.79;;
72978;Laerm;61167;55.884;37.524;2023-01-13T04:11:05;52.66;48.04;66.10;;
72978;Laerm;61167;55.884;37.524;2023-01-13T04:12:19;53.99;49.30;64.50;;
72978;Laerm;61167;55.884;37.524;2023-01-13T04:13:22;52.97;48.68;70.62;;
72978;Laerm;61167;55.884;37.524;2023-01-13T04:14:23;53.69;49.82;68.66;;
72978;Laerm;61167;55.884;37.524;2023-01-13T04:15:47;51.76;48.12;54.97;;
72978;Laerm;61167;55.884;37.524;2023-01-13T04:16:46;53.07;48.69;59.82;;
72978;Laerm;61167;55.884;37.524;2023-01-13T04:17:48;53.23;49.52;63.57;;
72978;Laerm;61167;55.884;37.524;2023-01-13T04:18:48;53.08;50.16;64.88;;
72978;Laerm;61167;55.884;37.524;2023-01-13T04:19:49;53.75;47.78;61.70;;
72978;Laerm;61167;55.884;37.524;2023-01-13T04:20:50;51.57;47.71;62.00;;
72978;Laerm;61167;55.884;37.524;2023-01-13T04:21:51;53.30;49.05;68.22;;
72978;Laerm;61167;55.884;37.524;2023-01-13T04:22:51;52.73;49.06;57.25;;
72978;Laerm;61167;55.884;37.524;2023-01-13T04:23:51;52.64;48.18;72.15;;
72978;Laerm;61167;55.884;37.524;2023-01-13T04:24:52;53.46;49.36;64.13;;
72978;Laerm;61167;55.884;37.524;2023-01-13T04:25:53;52.89;49.65;61.73;;
72978;Laerm;61167;55.884;37.524;2023-01-13T04:26:53;56.97;49.75;72.56;;
72978;Laerm;61167;55.884;37.524;2023-01-13T04:27:55;53.26;48.42;66.17;;
72978;Laerm;61167;55.884;37.524;2023-01-13T04:28:55;52.13;47.76;65.60;;
72978;Laerm;61167;55.884;37.524;2023-01-13T04:29:56;53.85;49.28;60.42;;
72978;Laerm;61167;55.884;37.524;2023-01-13T04:30:56;54.03;48.82;62.88;;
72978;Laerm;61167;55.884;37.524;2023-01-13T04:31:56;52.33;47.55;63.74;;
72978;Laerm;61167;55.884;37.524;2023-01-13T04:32:57;54.78;49.30;59.55;;
72978;Laerm;61167;55.884;37.524;2023-01-13T04:33:57;53.54;48.03;60.05;;
72978;Laerm;61167;55.884;37.524;2023-01-13T04:34:58;53.93;48.61;63.12;;
72978;Laerm;61167;55.884;37.524;2023-01-13T04:35:58;52.43;49.29;59.52;;
72978;Laerm;61167;55.884;37.524;2023-01-13T04:36:59;53.23;49.57;56.78;;
72978;Laerm;61167;55.884;37.524;2023-01-13T04:38:00;53.01;48.97;66.25;;
72978;Laerm;61167;55.884;37.524;2023-01-13T04:39:01;57.53;49.66;76.55;;
72978;Laerm;61167;55.884;37.524;2023-01-13T04:40:02;54.52;50.74;71.18;;
72978;Laerm;61167;55.884;37.524;2023-01-13T04:41:02;52.64;48.26;60.11;;
72978;Laerm;61167;55.884;37.524;2023-01-13T04:42:02;52.01;48.64;64.22;;
72978;Laerm;61167;55.884;37.524;2023-01-13T04:43:03;54.27;49.26;66.23;;
72978;Laerm;61167;55.884;37.524;2023-01-13T04:44:04;56.16;49.07;77.25;;
72978;Laerm;61167;55.884;37.524;2023-01-13T04:45:04;52.87;48.03;69.76;;
72978;Laerm;61167;55.884;37.524;2023-01-13T04:46:05;55.32;49.30;74.67;;
72978;Laerm;61167;55.884;37.524;2023-01-13T04:47:05;54.05;50.50;59.10;;
72978;Laerm;61167;55.884;37.524;2023-01-13T04:48:05;53.66;50.11;66.01;;
72978;Laerm;61167;55.884;37.524;2023-01-13T04:49:06;52.36;48.81;62.40;;
72978;Laerm;61167;55.884;37.524;2023-01-13T04:50:07;53.59;49.89;59.57;;
72978;Laerm;61167;55.884;37.524;2023-01-13T04:51:07;54.89;49.31;76.63;;
72978;Laerm;61167;55.884;37.524;2023-01-13T04:52:08;53.80;49.58;69.18;;
72978;Laerm;61167;55.884;37.524;2023-01-13T04:53:08;53.33;49.46;64.15;;
72978;Laerm;61167;55.884;37.524;2023-01-13T04:54:11;54.11;50.00;59.80;;
72978;Laerm;61167;55.884;37.524;2023-01-13T04:55:12;53.73;50.27;60.27;;
72978;Laerm;61167;55.884;37.524;2023-01-13T04:56:12;54.02;50.56;59.83;;
72978;Laerm;61167;55.884;37.524;2023-01-13T04:57:13;55.35;51.25;67.62;;
72978;Laerm;61167;55.884;37.524;2023-01-13T04:58:13;53.48;50.18;66.56;;
72978;Laerm;61167;55.884;37.524;2023-01-13T04:59:13;54.33;49.08;65.32;;
72978;Laerm;61167;55.884;37.524;2023-01-13T05:01:14;57.09;51.30;74.00;;
72978;Laerm;61167;55.884;37.524;2023-01-13T05:02:15;57.27;51.22;64.57;;
72978;Laerm;61167;55.884;37.524;2023-01-13T05:03:20;54.20;49.22;61.63;;
72978;Laerm;61167;55.884;37.524;2023-01-13T05:04:21;53.59;49.06;63.67;;
72978;Laerm;61167;55.884;37.524;2023-01-13T05:05:21;53.70;49.40;63.37;;
72978;Laerm;61167;55.884;37.524;2023-01-13T05:06:21;55.84;50.94;69.14;;
72978;Laerm;61167;55.884;37.524;2023-01-13T05:07:22;54.45;50.31;63.17;;
72978;Laerm;61167;55.884;37.524;2023-01-13T05:08:22;59.75;50.58;86.98;;
72978;Laerm;61167;55.884;37.524;2023-01-13T05:09:22;56.89;50.91;74.01;;
72978;Laerm;61167;55.884;37.524;2023-01-13T05:10:23;56.42;51.75;73.08;;
72978;Laerm;61167;55.884;37.524;2023-01-13T05:11:23;60.68;51.90;77.81;;
72978;Laerm;61167;55.884;37.524;2023-01-13T05:12:42;56.52;51.55;66.12;;
72978;Laerm;61167;55.884;37.524;2023-01-13T05:14:01;55.55;50.52;68.27;;
72978;Laerm;61167;55.884;37.524;2023-01-13T05:15:20;58.15;51.65;76.83;;
72978;Laerm;61167;55.884;37.524;2023-01-13T05:16:40;59.18;50.97;79.83;;
72978;Laerm;61167;55.884;37.524;2023-01-13T05:17:59;64.92;51.72;88.84;;
72978;Laerm;61167;55.884;37.524;2023-01-13T05:19:00;55.36;50.82;65.59;;
72978;Laerm;61167;55.884;37.524;2023-01-13T05:20:00;57.15;50.43;76.47;;
72978;Laerm;61167;55.884;37.524;2023-01-13T05:21:01;54.71;51.08;62.15;;
72978;Laerm;61167;55.884;37.524;2023-01-13T05:22:02;55.26;50.27;74.08;;
72978;Laerm;61167;55.884;37.524;2023-01-13T05:23:21;55.09;51.11;67.93;;
72978;Laerm;61167;55.884;37.524;2023-01-13T05:24:39;54.55;48.43;66.73;;
72978;Laerm;61167;55.884;37.524;2023-01-13T05:25:58;53.37;49.40;57.77;;
72978;Laerm;61167;55.884;37.524;2023-01-13T05:27:00;54.29;50.45;64.91;;
72978;Laerm;61167;55.884;37.524;2023-01-13T05:28:00;53.19;48.92;57.29;;
72978;Laerm;61167;55.884;37.524;2023-01-13T05:29:01;52.72;49.43;62.39;;
72978;Laerm;61167;55.884;37.524;2023-01-13T05:30:01;57.03;50.11;73.42;;
72978;Laerm;61167;55.884;37.524;2023-01-13T05:31:02;62.47;48.94;82.98;;
72978;Laerm;61167;55.884;37.524;2023-01-13T05:32:02;54.42;49.63;68.87;;
72978;Laerm;61167;55.884;37.524;2023-01-13T05:33:05;53.30;49.70;70.74;;
72978;Laerm;61167;55.884;37.524;2023-01-13T05:34:06;55.26;51.58;63.48;;
72978;Laerm;61167;55.884;37.524;2023-01-13T05:35:06;57.28;49.80;74.47;;
72978;Laerm;61167;55.884;37.524;2023-01-13T05:36:07;52.58;49.44;59.05;;
72978;Laerm;61167;55.884;37.524;2023-01-13T05:37:07;53.99;50.67;62.26;;
72978;Laerm;61167;55.884;37.524;2023-01-13T05:38:12;55.51;50.01;66.56;;
72978;Laerm;61167;55.884;37.524;2023-01-13T05:39:13;56.74;50.56;70.30;;
72978;Laerm;61167;55.884;37.524;2023-01-13T05:40:15;63.46;49.94;85.95;;
72978;Laerm;61167;55.884;37.524;2023-01-13T05:41:35;55.59;50.23;77.87;;
72978;Laerm;61167;55.884;37.524;2023-01-13T05:43:04;53.04;48.31;68.93;;
72978;Laerm;61167;55.884;37.524;2023-01-13T05:44:20;54.94;49.65;72.59;;
72978;Laerm;61167;55.884;37.524;2023-01-13T05:45:21;52.75;49.53;58.36;;
72978;Laerm;61167;55.884;37.524;2023-01-13T05:46:21;55.46;50.26;68.42;;
72978;Laerm;61167;55.884;37.524;2023-01-13T05:47:22;53.41;49.96;59.18;;
72978;Laerm;61167;55.884;37.524;2023-01-13T05:48:24;53.74;49.99;64.06;;
72978;Laerm;61167;55.884;37.524;2023-01-13T05:49:25;53.13;50.37;56.19;;
72978;Laerm;61167;55.884;37.524;2023-01-13T05:50:26;55.24;49.86;70.69;;
72978;Laerm;61167;55.884;37.524;2023-01-13T05:51:26;53.04;49.61;57.95;;
72978;Laerm;61167;55.884;37.524;2023-01-13T05:52:27;54.03;50.46;65.22;;
72978;Laerm;61167;55.884;37.524;2023-01-13T05:53:27;54.14;50.35;68.34;;
72978;Laerm;61167;55.884;37.524;2023-01-13T05:54:28;53.28;49.28;58.86;;
72978;Laerm;61167;55.884;37.524;2023-01-13T05:55:29;54.17;50.43;59.85;;
72978;Laerm;61167;55.884;37.524;2023-01-13T05:56:29;53.68;49.61;66.08;;
72978;Laerm;61167;55.884;37.524;2023-01-13T05:57:29;56.79;50.67;67.62;;
72978;Laerm;61167;55.884;37.524;2023-01-13T05:58:30;64.35;49.59;83.34;;
72978;Laerm;61167;55.884;37.524;2023-01-13T05:59:30;55.79;49.38;72.64;;
72978;Laerm;61167;55.884;37.524;2023-01-13T06:00:31;53.15;49.33;65.97;;
72978;Laerm;61167;55.884;37.524;2023-01-13T06:01:31;54.79;49.67;70.58;;
72978;Laerm;61167;55.884;37.524;2023-01-13T06:02:31;53.86;50.13;62.59;;
72978;Laerm;61167;55.884;37.524;2023-01-13T06:03:32;53.12;49.78;57.58;;
72978;Laerm;61167;55.884;37.524;2023-01-13T06:04:33;53.36;49.73;68.59;;
72978;Laerm;61167;55.884;37.524;2023-01-13T06:05:33;55.89;50.63;72.26;;
72978;Laerm;61167;55.884;37.524;2023-01-13T06:06:34;54.72;50.23;64.01;;
72978;Laerm;61167;55.884;37.524;2023-01-13T06:07:34;55.92;50.06;74.55;;
72978;Laerm;61167;55.884;37.524;2023-01-13T06:08:35;52.27;48.92;65.14;;
72978;Laerm;61167;55.884;37.524;2023-01-13T06:09:35;52.71;48.89;65.99;;
72978;Laerm;61167;55.884;37.524;2023-01-13T06:10:36;55.55;50.29;76.00;;
72978;Laerm;61167;55.884;37.524;2023-01-13T06:11:36;53.43;49.24;63.81;;
72978;Laerm;61167;55.884;37.524;2023-01-13T06:12:36;54.62;49.71;66.58;;
72978;Laerm;61167;55.884;37.524;2023-01-13T06:13:37;57.95;49.30;80.91;;
72978;Laerm;61167;55.884;37.524;2023-01-13T06:14:37;53.17;49.07;60.29;;
72978;Laerm;61167;55.884;37.524;2023-01-13T06:15:40;53.88;50.15;61.41;;
72978;Laerm;61167;55.884;37.524;2023-01-13T06:16:41;55.33;51.18;66.86;;
72978;Laerm;61167;55.884;37.524;2023-01-13T06:17:41;54.08;50.12;59.21;;
72978;Laerm;61167;55.884;37.524;2023-01-13T06:18:43;53.05;49.64;58.96;;
72978;Laerm;61167;55.884;37.524;2023-01-13T06:19:43;54.63;49.05;67.45;;
72978;Laerm;61167;55.884;37.524;2023-01-13T06:20:45;53.22;49.92;59.10;;
72978;Laerm;61167;55.884;37.524;2023-01-13T06:21:46;54.50;49.36;70.34;;